sensor_id;sensor_type;location;lat;lon;timestamp;pressure;altitude;pressure_sealevel;temperature;humidity
13593;BME280;6867;50.998;4.250;2022-08-01T00:01:11;101470.97;;;22.40;74.21
13593;BME280;6867;50.998;4.250;2022-08-01T00:03:38;101473.19;;;22.48;73.83
13593;BME280;6867;50.998;4.250;2022-08-01T00:06:05;101458.97;;;22.51;73.59
13593;BME280;6867;50.998;4.250;2022-08-01T00:08:31;101445.03;;;22.63;72.97
13593;BME280;6867;50.998;4.250;2022-08-01T00:10:58;101469.63;;;22.32;74.21
13593;BME280;6867;50.998;4.250;2022-08-01T00:13:25;101474.81;;;22.44;74.25
13593;BME280;6867;50.998;4.250;2022-08-01T00:15:51;101469.91;;;22.46;73.95
13593;BME280;6867;50.998;4.250;2022-08-01T00:18:20;101472.91;;;22.34;74.47
13593;BME280;6867;50.998;4.250;2022-08-01T00:20:46;101481.63;;;22.31;75.14
13593;BME280;6867;50.998;4.250;2022-08-01T00:25:40;101481.09;;;22.24;75.08
13593;BME280;6867;50.998;4.250;2022-08-01T00:28:06;101471.56;;;22.42;74.56
13593;BME280;6867;50.998;4.250;2022-08-01T00:30:34;101474.53;;;22.30;75.01
13593;BME280;6867;50.998;4.250;2022-08-01T00:33:00;101480.28;;;22.29;75.28
13593;BME280;6867;50.998;4.250;2022-08-01T00:35:28;101470.44;;;22.38;74.90
13593;BME280;6867;50.998;4.250;2022-08-01T00:37:55;101478.88;;;22.26;75.34
13593;BME280;6867;50.998;4.250;2022-08-01T00:40:22;101478.94;;;22.42;75.13
13593;BME280;6867;50.998;4.250;2022-08-01T00:42:49;101469.94;;;22.51;74.54
13593;BME280;6867;50.998;4.250;2022-08-01T00:45:16;101471.31;;;22.54;74.45
13593;BME280;6867;50.998;4.250;2022-08-01T00:47:42;101467.72;;;22.48;74.71
13593;BME280;6867;50.998;4.250;2022-08-01T00:50:10;101475.09;;;22.32;75.52
13593;BME280;6867;50.998;4.250;2022-08-01T00:52:39;101471.78;;;22.30;75.37
13593;BME280;6867;50.998;4.250;2022-08-01T00:55:07;101474.81;;;22.29;75.82
13593;BME280;6867;50.998;4.250;2022-08-01T00:57:34;101478.88;;;22.16;76.29
13593;BME280;6867;50.998;4.250;2022-08-01T01:00:01;101485.19;;;22.27;76.24
13593;BME280;6867;50.998;4.250;2022-08-01T01:02:28;101487.28;;;22.09;76.69
13593;BME280;6867;50.998;4.250;2022-08-01T01:04:55;101489.25;;;22.14;77.16
13593;BME280;6867;50.998;4.250;2022-08-01T01:07:27;101490.34;;;22.18;77.39
13593;BME280;6867;50.998;4.250;2022-08-01T01:10:03;101499.84;;;22.05;78.44
13593;BME280;6867;50.998;4.250;2022-08-01T01:12:36;101497.41;;;22.09;78.37
13593;BME280;6867;50.998;4.250;2022-08-01T01:15:07;101492.16;;;22.02;78.59
13593;BME280;6867;50.998;4.250;2022-08-01T01:17:38;101501.72;;;21.95;79.14
13593;BME280;6867;50.998;4.250;2022-08-01T01:20:08;101485.88;;;22.07;78.61
13593;BME280;6867;50.998;4.250;2022-08-01T01:22:47;101507.19;;;21.95;79.81
13593;BME280;6867;50.998;4.250;2022-08-01T01:25:32;101485.34;;;22.05;79.77
13593;BME280;6867;50.998;4.250;2022-08-01T01:28:12;101490.75;;;21.89;79.93
13593;BME280;6867;50.998;4.250;2022-08-01T01:30:44;101495.66;;;21.87;80.48
13593;BME280;6867;50.998;4.250;2022-08-01T01:33:14;101479.28;;;21.93;80.04
13593;BME280;6867;50.998;4.250;2022-08-01T01:35:44;101480.16;;;22.08;79.79
13593;BME280;6867;50.998;4.250;2022-08-01T01:38:17;101473.31;;;22.11;79.41
13593;BME280;6867;50.998;4.250;2022-08-01T01:40:46;101476.56;;;21.98;79.78
13593;BME280;6867;50.998;4.250;2022-08-01T01:43:15;101492.63;;;21.84;80.57
13593;BME280;6867;50.998;4.250;2022-08-01T01:45:45;101484.16;;;21.85;80.49
13593;BME280;6867;50.998;4.250;2022-08-01T01:48:15;101475.50;;;21.99;80.04
13593;BME280;6867;50.998;4.250;2022-08-01T01:50:45;101478.78;;;22.11;79.80
13593;BME280;6867;50.998;4.250;2022-08-01T01:53:13;101466.84;;;22.22;79.24
13593;BME280;6867;50.998;4.250;2022-08-01T01:55:45;101470.13;;;22.24;79.41
13593;BME280;6867;50.998;4.250;2022-08-01T01:58:13;101478.28;;;22.14;79.88
13593;BME280;6867;50.998;4.250;2022-08-01T02:00:44;101464.91;;;22.23;79.64
13593;BME280;6867;50.998;4.250;2022-08-01T02:03:12;101465.22;;;22.26;79.12
13593;BME280;6867;50.998;4.250;2022-08-01T02:05:41;101475.06;;;22.27;79.29
13593;BME280;6867;50.998;4.250;2022-08-01T02:08:09;101466.84;;;22.27;79.26
13593;BME280;6867;50.998;4.250;2022-08-01T02:10:39;101461.38;;;22.27;78.96
13593;BME280;6867;50.998;4.250;2022-08-01T02:13:07;101462.22;;;22.33;78.83
13593;BME280;6867;50.998;4.250;2022-08-01T02:15:35;101470.09;;;22.14;79.80
13593;BME280;6867;50.998;4.250;2022-08-01T02:18:06;101457.00;;;22.21;79.39
13593;BME280;6867;50.998;4.250;2022-08-01T02:20:34;101471.97;;;22.08;80.08
13593;BME280;6867;50.998;4.250;2022-08-01T02:23:07;101468.16;;;22.15;80.16
13593;BME280;6867;50.998;4.250;2022-08-01T02:25:38;101471.50;;;22.22;80.34
13593;BME280;6867;50.998;4.250;2022-08-01T02:28:07;101481.91;;;22.20;80.31
13593;BME280;6867;50.998;4.250;2022-08-01T02:30:38;101473.69;;;22.20;80.10
13593;BME280;6867;50.998;4.250;2022-08-01T02:33:11;101467.34;;;22.14;80.52
13593;BME280;6867;50.998;4.250;2022-08-01T02:35:41;101471.16;;;22.08;80.61
13593;BME280;6867;50.998;4.250;2022-08-01T02:38:10;101476.31;;;22.04;81.23
13593;BME280;6867;50.998;4.250;2022-08-01T02:40:41;101488.59;;;21.97;82.03
13593;BME280;6867;50.998;4.250;2022-08-01T02:43:10;101505.06;;;21.59;84.09
13593;BME280;6867;50.998;4.250;2022-08-01T02:45:43;101499.94;;;21.73;83.86
13593;BME280;6867;50.998;4.250;2022-08-01T02:48:15;101501.31;;;21.71;84.11
13593;BME280;6867;50.998;4.250;2022-08-01T02:50:46;101496.66;;;21.71;84.21
13593;BME280;6867;50.998;4.250;2022-08-01T02:53:14;101485.16;;;21.69;84.16
13593;BME280;6867;50.998;4.250;2022-08-01T02:55:43;101487.88;;;21.69;84.64
13593;BME280;6867;50.998;4.250;2022-08-01T02:58:15;101502.34;;;21.64;85.79
13593;BME280;6867;50.998;4.250;2022-08-01T03:00:43;101492.50;;;21.58;85.87
13593;BME280;6867;50.998;4.250;2022-08-01T03:03:13;101495.44;;;21.52;86.19
13593;BME280;6867;50.998;4.250;2022-08-01T03:05:42;101494.63;;;21.51;86.54
13593;BME280;6867;50.998;4.250;2022-08-01T03:08:11;101496.22;;;21.47;86.61
13593;BME280;6867;50.998;4.250;2022-08-01T03:10:41;101500.28;;;21.39;87.50
13593;BME280;6867;50.998;4.250;2022-08-01T03:13:09;101500.50;;;21.33;87.93
13593;BME280;6867;50.998;4.250;2022-08-01T03:15:39;101498.31;;;21.35;88.29
13593;BME280;6867;50.998;4.250;2022-08-01T03:18:07;101498.91;;;21.37;88.58
13593;BME280;6867;50.998;4.250;2022-08-01T03:20:37;101499.69;;;21.32;88.43
13593;BME280;6867;50.998;4.250;2022-08-01T03:23:09;101499.41;;;21.34;87.92
13593;BME280;6867;50.998;4.250;2022-08-01T03:25:40;101493.06;;;21.28;88.31
13593;BME280;6867;50.998;4.250;2022-08-01T03:28:08;101497.44;;;21.29;88.45
13593;BME280;6867;50.998;4.250;2022-08-01T03:30:36;101485.47;;;21.35;88.12
13593;BME280;6867;50.998;4.250;2022-08-01T03:33:04;101491.00;;;21.41;88.21
13593;BME280;6867;50.998;4.250;2022-08-01T03:35:36;101501.94;;;21.41;88.59
13593;BME280;6867;50.998;4.250;2022-08-01T03:38:06;101490.53;;;21.54;88.44
13593;BME280;6867;50.998;4.250;2022-08-01T03:40:38;101490.00;;;21.57;88.24
13593;BME280;6867;50.998;4.250;2022-08-01T03:43:10;101493.31;;;21.59;88.12
13593;BME280;6867;50.998;4.250;2022-08-01T03:45:40;101487.66;;;21.76;87.29
13593;BME280;6867;50.998;4.250;2022-08-01T03:48:11;101492.63;;;21.79;86.75
13593;BME280;6867;50.998;4.250;2022-08-01T03:50:41;101491.50;;;21.80;86.54
13593;BME280;6867;50.998;4.250;2022-08-01T03:53:11;101490.94;;;21.78;86.41
13593;BME280;6867;50.998;4.250;2022-08-01T03:55:41;101493.75;;;21.88;86.30
13593;BME280;6867;50.998;4.250;2022-08-01T03:58:09;101484.13;;;21.80;86.18
13593;BME280;6867;50.998;4.250;2022-08-01T04:00:37;101491.59;;;21.95;85.84
13593;BME280;6867;50.998;4.250;2022-08-01T04:03:05;101491.84;;;21.94;85.72
13593;BME280;6867;50.998;4.250;2022-08-01T04:05:33;101494.84;;;21.87;85.92
13593;BME280;6867;50.998;4.250;2022-08-01T04:08:00;101499.75;;;21.90;85.82
13593;BME280;6867;50.998;4.250;2022-08-01T04:10:29;101501.69;;;21.89;86.15
13593;BME280;6867;50.998;4.250;2022-08-01T04:12:56;101487.13;;;21.74;86.13
13593;BME280;6867;50.998;4.250;2022-08-01T04:15:23;101500.22;;;21.72;87.02
13593;BME280;6867;50.998;4.250;2022-08-01T04:17:50;101507.88;;;21.70;87.23
13593;BME280;6867;50.998;4.250;2022-08-01T04:20:16;101505.34;;;21.58;87.89
13593;BME280;6867;50.998;4.250;2022-08-01T04:22:43;101516.09;;;21.70;87.59
13593;BME280;6867;50.998;4.250;2022-08-01T04:25:14;101518.84;;;21.75;87.23
13593;BME280;6867;50.998;4.250;2022-08-01T04:27:47;101517.47;;;21.77;86.87
13593;BME280;6867;50.998;4.250;2022-08-01T04:30:15;101509.31;;;21.82;86.51
13593;BME280;6867;50.998;4.250;2022-08-01T04:32:44;101514.84;;;21.93;86.38
13593;BME280;6867;50.998;4.250;2022-08-01T04:35:13;101517.28;;;21.94;85.95
13593;BME280;6867;50.998;4.250;2022-08-01T04:37:44;101511.28;;;21.97;85.95
13593;BME280;6867;50.998;4.250;2022-08-01T04:40:14;101504.72;;;21.98;85.68
13593;BME280;6867;50.998;4.250;2022-08-01T04:42:43;101511.59;;;22.01;85.69
13593;BME280;6867;50.998;4.250;2022-08-01T04:45:11;101503.97;;;22.08;85.39
13593;BME280;6867;50.998;4.250;2022-08-01T04:47:39;101518.72;;;22.07;85.29
13593;BME280;6867;50.998;4.250;2022-08-01T04:50:07;101508.88;;;22.06;84.79
13593;BME280;6867;50.998;4.250;2022-08-01T04:52:35;101513.63;;;22.16;84.88
13593;BME280;6867;50.998;4.250;2022-08-01T04:55:03;101508.16;;;22.16;84.38
13593;BME280;6867;50.998;4.250;2022-08-01T04:57:31;101514.16;;;22.12;84.20
13593;BME280;6867;50.998;4.250;2022-08-01T05:00:00;101518.53;;;22.19;84.24
13593;BME280;6867;50.998;4.250;2022-08-01T05:02:28;101522.56;;;22.11;84.15
13593;BME280;6867;50.998;4.250;2022-08-01T05:04:55;101523.94;;;22.08;84.31
13593;BME280;6867;50.998;4.250;2022-08-01T05:07:21;101514.97;;;22.13;84.20
13593;BME280;6867;50.998;4.250;2022-08-01T05:09:49;101520.47;;;22.23;84.15
13593;BME280;6867;50.998;4.250;2022-08-01T05:12:16;101512.56;;;22.32;83.81
13593;BME280;6867;50.998;4.250;2022-08-01T05:14:43;101497.50;;;22.24;83.00
13593;BME280;6867;50.998;4.250;2022-08-01T05:17:11;101500.28;;;22.45;82.88
13593;BME280;6867;50.998;4.250;2022-08-01T05:19:39;101494.81;;;22.45;81.92
13593;BME280;6867;50.998;4.250;2022-08-01T05:22:09;101494.84;;;22.55;81.73
13593;BME280;6867;50.998;4.250;2022-08-01T05:24:38;101490.19;;;22.60;81.05
13593;BME280;6867;50.998;4.250;2022-08-01T05:27:05;101496.25;;;22.68;80.32
13593;BME280;6867;50.998;4.250;2022-08-01T05:29:33;101497.09;;;22.88;80.03
13593;BME280;6867;50.998;4.250;2022-08-01T05:32:00;101487.81;;;23.15;78.93
13593;BME280;6867;50.998;4.250;2022-08-01T05:34:28;101484.25;;;23.25;78.06
13593;BME280;6867;50.998;4.250;2022-08-01T05:36:55;101484.50;;;23.39;77.21
13593;BME280;6867;50.998;4.250;2022-08-01T05:39:22;101466.66;;;23.51;75.79
13593;BME280;6867;50.998;4.250;2022-08-01T05:41:48;101464.22;;;23.40;75.08
13593;BME280;6867;50.998;4.250;2022-08-01T05:44:15;101463.41;;;23.24;74.71
13593;BME280;6867;50.998;4.250;2022-08-01T05:46:42;101474.13;;;23.05;74.76
13593;BME280;6867;50.998;4.250;2022-08-01T05:49:08;101471.94;;;23.17;74.54
13593;BME280;6867;50.998;4.250;2022-08-01T05:51:37;101474.66;;;23.27;74.67
13593;BME280;6867;50.998;4.250;2022-08-01T05:54:03;101478.75;;;23.35;74.18
13593;BME280;6867;50.998;4.250;2022-08-01T05:56:30;101470.47;;;23.60;73.68
13593;BME280;6867;50.998;4.250;2022-08-01T05:58:57;101454.59;;;23.52;72.32
13593;BME280;6867;50.998;4.250;2022-08-01T06:01:24;101458.16;;;23.68;71.82
13593;BME280;6867;50.998;4.250;2022-08-01T06:03:50;101456.81;;;23.50;71.75
13593;BME280;6867;50.998;4.250;2022-08-01T06:06:18;101451.88;;;23.47;72.05
13593;BME280;6867;50.998;4.250;2022-08-01T06:08:46;101448.81;;;23.64;70.99
13593;BME280;6867;50.998;4.250;2022-08-01T06:11:13;101454.03;;;23.71;71.21
13593;BME280;6867;50.998;4.250;2022-08-01T06:13:39;101437.75;;;23.95;69.80
13593;BME280;6867;50.998;4.250;2022-08-01T06:16:06;101420.25;;;23.80;69.37
13593;BME280;6867;50.998;4.250;2022-08-01T06:18:33;101428.03;;;24.18;69.28
13593;BME280;6867;50.998;4.250;2022-08-01T06:21:00;101419.81;;;24.18;68.15
13593;BME280;6867;50.998;4.250;2022-08-01T06:23:26;101417.44;;;24.01;67.72
13593;BME280;6867;50.998;4.250;2022-08-01T06:25:55;101426.44;;;24.06;68.43
13593;BME280;6867;50.998;4.250;2022-08-01T06:28:21;101401.22;;;24.49;66.66
13593;BME280;6867;50.998;4.250;2022-08-01T06:30:48;101403.28;;;25.01;66.24
13593;BME280;6867;50.998;4.250;2022-08-01T06:33:15;101371.94;;;25.31;64.16
13593;BME280;6867;50.998;4.250;2022-08-01T06:35:42;101348.72;;;25.43;62.87
13593;BME280;6867;50.998;4.250;2022-08-01T06:38:08;101345.59;;;25.49;62.15
13593;BME280;6867;50.998;4.250;2022-08-01T06:40:35;101354.41;;;25.70;61.58
13593;BME280;6867;50.998;4.250;2022-08-01T06:43:04;101337.88;;;25.51;60.20
13593;BME280;6867;50.998;4.250;2022-08-01T06:45:31;101323.63;;;25.68;59.36
13593;BME280;6867;50.998;4.250;2022-08-01T06:47:58;101342.50;;;25.32;59.78
13593;BME280;6867;50.998;4.250;2022-08-01T06:50:25;101371.13;;;25.31;60.94
13593;BME280;6867;50.998;4.250;2022-08-01T06:52:51;101357.28;;;25.60;60.08
13593;BME280;6867;50.998;4.250;2022-08-01T06:55:18;101373.44;;;25.91;59.95
13593;BME280;6867;50.998;4.250;2022-08-01T06:57:47;101368.72;;;25.91;59.92
13593;BME280;6867;50.998;4.250;2022-08-01T07:00:17;101360.94;;;25.98;59.07
13593;BME280;6867;50.998;4.250;2022-08-01T07:02:47;101352.41;;;25.76;58.75
13593;BME280;6867;50.998;4.250;2022-08-01T07:05:14;101355.91;;;25.63;59.17
13593;BME280;6867;50.998;4.250;2022-08-01T07:07:41;101369.09;;;25.42;59.36
13593;BME280;6867;50.998;4.250;2022-08-01T07:10:08;101383.97;;;25.06;60.45
13593;BME280;6867;50.998;4.250;2022-08-01T07:12:35;101393.50;;;25.19;60.55
13593;BME280;6867;50.998;4.250;2022-08-01T07:15:04;101378.75;;;25.58;59.81
13593;BME280;6867;50.998;4.250;2022-08-01T07:17:36;101394.69;;;25.61;60.18
13593;BME280;6867;50.998;4.250;2022-08-01T07:20:04;101375.31;;;25.71;59.05
13593;BME280;6867;50.998;4.250;2022-08-01T07:22:31;101355.94;;;25.81;58.63
13593;BME280;6867;50.998;4.250;2022-08-01T07:24:58;101329.44;;;26.23;57.44
13593;BME280;6867;50.998;4.250;2022-08-01T07:27:24;101337.41;;;26.76;56.34
13593;BME280;6867;50.998;4.250;2022-08-01T07:29:51;101340.50;;;27.02;55.90
13593;BME280;6867;50.998;4.250;2022-08-01T07:32:18;101330.03;;;27.32;54.97
13593;BME280;6867;50.998;4.250;2022-08-01T07:34:46;101272.94;;;27.19;52.97
13593;BME280;6867;50.998;4.250;2022-08-01T07:37:12;101292.56;;;27.17;53.74
13593;BME280;6867;50.998;4.250;2022-08-01T07:39:39;101305.59;;;26.84;54.44
13593;BME280;6867;50.998;4.250;2022-08-01T07:42:06;101334.56;;;26.49;55.48
13593;BME280;6867;50.998;4.250;2022-08-01T07:44:33;101342.50;;;26.18;56.05
13593;BME280;6867;50.998;4.250;2022-08-01T07:47:00;101353.59;;;26.13;56.29
13593;BME280;6867;50.998;4.250;2022-08-01T07:49:27;101346.13;;;26.51;55.75
13593;BME280;6867;50.998;4.250;2022-08-01T07:51:55;101311.69;;;26.67;54.38
13593;BME280;6867;50.998;4.250;2022-08-01T07:54:22;101312.13;;;26.88;54.14
13593;BME280;6867;50.998;4.250;2022-08-01T07:56:53;101307.50;;;26.70;53.59
13593;BME280;6867;50.998;4.250;2022-08-01T07:59:19;101297.00;;;26.86;52.88
13593;BME280;6867;50.998;4.250;2022-08-01T08:01:48;101331.09;;;26.90;53.91
13593;BME280;6867;50.998;4.250;2022-08-01T08:04:15;101286.47;;;26.88;52.26
13593;BME280;6867;50.998;4.250;2022-08-01T08:06:42;101311.16;;;26.79;53.28
13593;BME280;6867;50.998;4.250;2022-08-01T08:09:11;101333.91;;;26.71;53.90
13593;BME280;6867;50.998;4.250;2022-08-01T08:11:38;101303.72;;;26.79;52.72
13593;BME280;6867;50.998;4.250;2022-08-01T08:14:04;101282.69;;;26.83;51.65
13593;BME280;6867;50.998;4.250;2022-08-01T08:16:31;101302.41;;;26.91;52.52
13593;BME280;6867;50.998;4.250;2022-08-01T08:18:58;101264.41;;;27.56;49.93
13593;BME280;6867;50.998;4.250;2022-08-01T08:21:25;101259.25;;;28.14;49.30
13593;BME280;6867;50.998;4.250;2022-08-01T08:23:51;101237.84;;;28.50;48.26
13593;BME280;6867;50.998;4.250;2022-08-01T08:26:42;101231.09;;;28.65;47.67
13593;BME280;6867;50.998;4.250;2022-08-01T08:29:09;101206.44;;;28.15;46.84
13593;BME280;6867;50.998;4.250;2022-08-01T08:31:35;101254.44;;;27.47;48.61
13593;BME280;6867;50.998;4.250;2022-08-01T08:34:02;101267.31;;;27.24;49.71
13593;BME280;6867;50.998;4.250;2022-08-01T08:36:29;101277.22;;;27.25;49.59
13593;BME280;6867;50.998;4.250;2022-08-01T08:38:55;101267.41;;;27.05;49.38
13593;BME280;6867;50.998;4.250;2022-08-01T08:41:22;101287.19;;;26.79;50.41
13593;BME280;6867;50.998;4.250;2022-08-01T08:43:50;101283.00;;;26.96;49.95
13593;BME280;6867;50.998;4.250;2022-08-01T08:46:18;101270.41;;;27.59;48.99
13593;BME280;6867;50.998;4.250;2022-08-01T08:48:45;101221.91;;;28.87;46.07
13593;BME280;6867;50.998;4.250;2022-08-01T08:51:14;101188.53;;;30.01;43.68
13593;BME280;6867;50.998;4.250;2022-08-01T08:53:46;101152.47;;;30.27;41.52
13593;BME280;6867;50.998;4.250;2022-08-01T08:56:13;101180.69;;;30.21;42.21
13593;BME280;6867;50.998;4.250;2022-08-01T08:58:44;101205.13;;;30.19;42.70
13593;BME280;6867;50.998;4.250;2022-08-01T09:01:13;101190.31;;;29.37;42.86
13593;BME280;6867;50.998;4.250;2022-08-01T09:03:40;101252.00;;;29.28;44.90
13593;BME280;6867;50.998;4.250;2022-08-01T09:06:07;101226.56;;;29.18;44.04
13593;BME280;6867;50.998;4.250;2022-08-01T09:08:33;101227.44;;;29.27;44.38
13593;BME280;6867;50.998;4.250;2022-08-01T09:11:00;101203.06;;;29.90;42.48
13593;BME280;6867;50.998;4.250;2022-08-01T09:13:27;101177.31;;;29.46;42.11
13593;BME280;6867;50.998;4.250;2022-08-01T09:15:54;101215.38;;;29.14;43.75
13593;BME280;6867;50.998;4.250;2022-08-01T09:18:30;101239.41;;;28.65;44.87
13593;BME280;6867;50.998;4.250;2022-08-01T09:21:10;101255.97;;;28.65;45.10
13593;BME280;6867;50.998;4.250;2022-08-01T09:23:38;101238.97;;;28.18;44.53
13593;BME280;6867;50.998;4.250;2022-08-01T09:26:08;101244.16;;;28.20;44.85
13593;BME280;6867;50.998;4.250;2022-08-01T09:28:35;101265.94;;;28.21;45.51
13593;BME280;6867;50.998;4.250;2022-08-01T09:31:07;101258.53;;;29.41;43.72
13593;BME280;6867;50.998;4.250;2022-08-01T09:33:50;101205.59;;;30.21;41.75
13593;BME280;6867;50.998;4.250;2022-08-01T09:36:18;101167.72;;;30.81;39.58
13593;BME280;6867;50.998;4.250;2022-08-01T09:38:44;101166.22;;;31.13;38.95
13593;BME280;6867;50.998;4.250;2022-08-01T09:41:11;101191.44;;;31.49;38.95
13593;BME280;6867;50.998;4.250;2022-08-01T09:43:38;101178.56;;;31.87;38.04
13593;BME280;6867;50.998;4.250;2022-08-01T09:48:36;101231.91;;;30.62;39.53
13593;BME280;6867;50.998;4.250;2022-08-01T09:51:06;101275.84;;;29.90;41.94
13593;BME280;6867;50.998;4.250;2022-08-01T09:53:45;101283.84;;;29.74;41.64
13593;BME280;6867;50.998;4.250;2022-08-01T09:56:12;101304.19;;;29.78;42.21
13593;BME280;6867;50.998;4.250;2022-08-01T09:58:50;101290.50;;;30.08;41.32
13593;BME280;6867;50.998;4.250;2022-08-01T10:01:20;101282.88;;;30.22;41.19
13593;BME280;6867;50.998;4.250;2022-08-01T10:04:09;101265.66;;;31.40;39.02
13593;BME280;6867;50.998;4.250;2022-08-01T10:06:39;101243.84;;;31.72;38.46
13593;BME280;6867;50.998;4.250;2022-08-01T10:09:08;101273.50;;;31.59;39.04
13593;BME280;6867;50.998;4.250;2022-08-01T10:11:36;101260.19;;;30.85;39.46
13593;BME280;6867;50.998;4.250;2022-08-01T10:14:05;101286.06;;;30.50;41.01
13593;BME280;6867;50.998;4.250;2022-08-01T10:16:33;101293.09;;;30.31;41.12
13593;BME280;6867;50.998;4.250;2022-08-01T10:19:02;101294.41;;;30.42;40.54
13593;BME280;6867;50.998;4.250;2022-08-01T10:21:32;101277.25;;;30.57;40.00
13593;BME280;6867;50.998;4.250;2022-08-01T10:24:01;101281.06;;;30.91;39.67
13593;BME280;6867;50.998;4.250;2022-08-01T10:26:29;101278.66;;;31.19;39.18
13593;BME280;6867;50.998;4.250;2022-08-01T10:28:58;101248.25;;;31.94;37.43
13593;BME280;6867;50.998;4.250;2022-08-01T10:31:25;101256.44;;;32.11;37.39
13593;BME280;6867;50.998;4.250;2022-08-01T10:33:57;101249.03;;;32.15;37.02
13593;BME280;6867;50.998;4.250;2022-08-01T10:36:24;101214.25;;;32.09;35.87
13593;BME280;6867;50.998;4.250;2022-08-01T10:38:52;101224.03;;;32.15;36.55
13593;BME280;6867;50.998;4.250;2022-08-01T10:41:21;101225.81;;;31.78;36.49
13593;BME280;6867;50.998;4.250;2022-08-01T10:43:48;101230.13;;;32.09;36.67
13593;BME280;6867;50.998;4.250;2022-08-01T10:46:18;101258.34;;;30.97;38.54
13593;BME280;6867;50.998;4.250;2022-08-01T10:48:52;101269.47;;;31.27;38.11
13593;BME280;6867;50.998;4.250;2022-08-01T10:51:21;101256.63;;;31.14;37.76
13593;BME280;6867;50.998;4.250;2022-08-01T10:53:50;101266.19;;;31.25;38.43
13593;BME280;6867;50.998;4.250;2022-08-01T10:56:17;101263.91;;;31.27;37.80
13593;BME280;6867;50.998;4.250;2022-08-01T10:58:46;101242.50;;;31.78;36.68
13593;BME280;6867;50.998;4.250;2022-08-01T11:01:22;101236.22;;;32.02;36.19
13593;BME280;6867;50.998;4.250;2022-08-01T11:03:58;101244.25;;;31.83;36.54
13593;BME280;6867;50.998;4.250;2022-08-01T11:06:38;101244.84;;;31.17;37.24
13593;BME280;6867;50.998;4.250;2022-08-01T11:09:24;101280.41;;;30.94;38.40
13593;BME280;6867;50.998;4.250;2022-08-01T11:11:58;101300.91;;;31.10;39.09
13593;BME280;6867;50.998;4.250;2022-08-01T11:14:27;101305.09;;;31.16;39.11
13593;BME280;6867;50.998;4.250;2022-08-01T11:16:54;101282.53;;;31.77;37.58
13593;BME280;6867;50.998;4.250;2022-08-01T11:19:22;101283.94;;;31.62;38.25
13593;BME280;6867;50.998;4.250;2022-08-01T11:22:03;101264.84;;;31.82;37.11
13593;BME280;6867;50.998;4.250;2022-08-01T11:24:55;101239.22;;;31.76;36.41
13593;BME280;6867;50.998;4.250;2022-08-01T11:27:27;101257.88;;;32.75;35.90
13593;BME280;6867;50.998;4.250;2022-08-01T11:30:24;101213.72;;;32.73;34.52
13593;BME280;6867;50.998;4.250;2022-08-01T11:32:53;101197.59;;;32.79;34.01
13593;BME280;6867;50.998;4.250;2022-08-01T11:35:22;101211.59;;;32.46;34.59
13593;BME280;6867;50.998;4.250;2022-08-01T11:37:52;101222.25;;;32.56;34.79
13593;BME280;6867;50.998;4.250;2022-08-01T11:40:22;101213.09;;;32.10;35.19
13593;BME280;6867;50.998;4.250;2022-08-01T11:42:51;101236.06;;;32.53;35.14
13593;BME280;6867;50.998;4.250;2022-08-01T11:45:48;101249.94;;;32.07;36.22
13593;BME280;6867;50.998;4.250;2022-08-01T11:48:18;101250.34;;;31.97;36.66
13593;BME280;6867;50.998;4.250;2022-08-01T11:50:45;101273.28;;;31.64;37.60
13593;BME280;6867;50.998;4.250;2022-08-01T11:53:12;101246.75;;;31.75;36.78
13593;BME280;6867;50.998;4.250;2022-08-01T11:55:45;101231.91;;;31.50;36.40
13593;BME280;6867;50.998;4.250;2022-08-01T11:58:13;101227.31;;;31.55;36.14
13593;BME280;6867;50.998;4.250;2022-08-01T12:00:41;101232.28;;;32.36;35.43
13593;BME280;6867;50.998;4.250;2022-08-01T12:03:23;101234.66;;;32.59;34.99
13593;BME280;6867;50.998;4.250;2022-08-01T12:05:50;101232.25;;;33.18;33.89
13593;BME280;6867;50.998;4.250;2022-08-01T12:08:24;101217.84;;;33.41;33.59
13593;BME280;6867;50.998;4.250;2022-08-01T12:10:51;101195.50;;;33.65;32.74
13593;BME280;6867;50.998;4.250;2022-08-01T12:13:18;101168.06;;;33.95;31.75
13593;BME280;6867;50.998;4.250;2022-08-01T12:15:45;101198.25;;;33.25;33.29
13593;BME280;6867;50.998;4.250;2022-08-01T12:18:12;101230.38;;;33.47;33.74
13593;BME280;6867;50.998;4.250;2022-08-01T12:20:42;101171.28;;;32.77;32.90
13593;BME280;6867;50.998;4.250;2022-08-01T12:23:10;101160.63;;;32.66;32.56
13593;BME280;6867;50.998;4.250;2022-08-01T12:25:38;101151.81;;;32.64;31.89
13593;BME280;6867;50.998;4.250;2022-08-01T12:28:06;101158.84;;;32.37;32.09
13593;BME280;6867;50.998;4.250;2022-08-01T12:30:36;101138.69;;;32.28;31.75
13593;BME280;6867;50.998;4.250;2022-08-01T12:33:05;101162.16;;;32.06;32.66
13593;BME280;6867;50.998;4.250;2022-08-01T12:35:33;101191.78;;;32.47;32.57
13593;BME280;6867;50.998;4.250;2022-08-01T12:38:04;101180.22;;;33.07;31.36
13593;BME280;6867;50.998;4.250;2022-08-01T12:40:32;101170.34;;;32.97;31.53
13593;BME280;6867;50.998;4.250;2022-08-01T12:43:00;101174.66;;;33.07;31.30
13593;BME280;6867;50.998;4.250;2022-08-01T12:45:32;101219.47;;;33.82;31.57
13593;BME280;6867;50.998;4.250;2022-08-01T12:48:00;101218.53;;;33.38;32.91
13593;BME280;6867;50.998;4.250;2022-08-01T12:50:29;101172.75;;;32.25;32.58
13593;BME280;6867;50.998;4.250;2022-08-01T12:52:57;101219.16;;;32.12;34.24
13593;BME280;6867;50.998;4.250;2022-08-01T12:55:26;101168.03;;;32.50;31.73
13593;BME280;6867;50.998;4.250;2022-08-01T12:58:04;101203.16;;;33.16;32.27
13593;BME280;6867;50.998;4.250;2022-08-01T13:00:31;101198.66;;;33.11;32.05
13593;BME280;6867;50.998;4.250;2022-08-01T13:03:03;101151.66;;;33.10;30.79
13593;BME280;6867;50.998;4.250;2022-08-01T13:05:41;101165.03;;;32.55;31.48
13593;BME280;6867;50.998;4.250;2022-08-01T13:08:10;101186.41;;;32.30;32.22
13593;BME280;6867;50.998;4.250;2022-08-01T13:10:39;101194.13;;;32.12;33.03
13593;BME280;6867;50.998;4.250;2022-08-01T13:13:06;101210.81;;;32.82;32.73
13593;BME280;6867;50.998;4.250;2022-08-01T13:15:35;101145.03;;;32.16;31.63